createdAt,value
2017-12-08T00:00:23.282Z,12.00
2017-12-08T00:02:50.904Z,10.02
2017-12-08T00:05:18.487Z,10.18
2017-12-08T00:07:46.040Z,10.73
2017-12-08T00:10:13.609Z,10.55
2017-12-08T00:12:41.194Z,11.55
2017-12-08T00:15:09.520Z,10.50
2017-12-08T00:17:37.885Z,10.20
2017-12-08T00:20:05.452Z,10.65
2017-12-08T00:22:33.025Z,10.55
2017-12-08T00:25:00.592Z,10.52
2017-12-08T00:27:28.145Z,9.82
2017-12-08T00:29:55.726Z,10.35
2017-12-08T00:32:23.323Z,10.55
2017-12-08T00:34:50.890Z,10.02
2017-12-08T00:37:18.482Z,10.18
2017-12-08T00:39:46.059Z,9.60
2017-12-08T00:42:13.620Z,9.30
2017-12-08T00:44:41.183Z,8.25
2017-12-08T00:47:08.766Z,9.23
2017-12-08T00:49:36.354Z,9.18
2017-12-08T00:52:03.919Z,8.70
2017-12-08T00:54:32.427Z,7.37
2017-12-08T00:56:59.982Z,7.95
2017-12-08T00:59:27.575Z,7.00
2017-12-08T01:01:55.211Z,6.97
2017-12-08T01:04:22.782Z,6.68
2017-12-08T01:06:50.396Z,5.68
2017-12-08T01:09:17.970Z,6.53
2017-12-08T01:11:45.549Z,6.70
2017-12-08T01:14:13.126Z,6.50
2017-12-08T01:16:40.722Z,6.00
2017-12-08T01:19:08.296Z,6.65
2017-12-08T01:21:35.882Z,7.10
2017-12-08T01:24:03.442Z,7.10
2017-12-08T01:26:31.018Z,6.70
2017-12-08T01:28:58.595Z,6.07
2017-12-08T01:31:26.181Z,6.55
2017-12-08T01:33:54.525Z,6.18
2017-12-08T01:36:22.108Z,5.70
2017-12-08T01:38:49.676Z,5.70
2017-12-08T01:41:17.998Z,4.20
2017-12-08T01:43:45.555Z,4.57
2017-12-08T01:46:13.121Z,4.10
2017-12-08T01:48:40.682Z,3.90
2017-12-08T01:51:08.249Z,3.35
2017-12-08T01:53:35.822Z,3.60
2017-12-08T01:56:03.399Z,3.95
2017-12-08T01:58:30.997Z,3.47
2017-12-08T02:00:58.555Z,3.50
2017-12-08T02:03:26.879Z,3.78
2017-12-08T02:05:54.457Z,3.25
2017-12-08T02:08:22.019Z,3.00
2017-12-08T02:10:49.576Z,2.73
2017-12-08T02:13:17.142Z,3.03
2017-12-08T02:15:44.718Z,2.90
2017-12-08T02:18:12.281Z,3.20
2017-12-08T02:20:40.608Z,2.95
2017-12-08T02:23:08.206Z,2.93
2017-12-08T02:25:35.754Z,3.20
2017-12-08T02:28:03.347Z,3.10
2017-12-08T02:30:31.684Z,3.20
2017-12-08T02:32:59.326Z,2.90
2017-12-08T02:35:26.916Z,3.20
2017-12-08T02:37:54.508Z,3.25
2017-12-08T02:40:22.847Z,2.90
2017-12-08T02:42:50.413Z,3.37
2017-12-08T02:45:17.994Z,2.90
2017-12-08T02:47:45.579Z,2.83
2017-12-08T02:50:13.164Z,3.20
2017-12-08T02:52:40.740Z,3.07
2017-12-08T02:55:08.295Z,3.00
2017-12-08T02:57:35.862Z,3.58
2017-12-08T03:00:03.419Z,3.60
2017-12-08T03:02:30.966Z,3.43
2017-12-08T03:04:58.519Z,2.85
2017-12-08T03:07:26.078Z,2.72
2017-12-08T03:09:53.653Z,2.42
2017-12-08T03:12:21.201Z,2.72
2017-12-08T03:14:48.761Z,2.55
2017-12-08T03:17:16.319Z,2.47
2017-12-08T03:19:43.934Z,2.67
2017-12-08T03:22:11.494Z,2.47
2017-12-08T03:24:39.087Z,2.85
2017-12-08T03:27:06.636Z,2.90
2017-12-08T03:29:34.984Z,3.13
2017-12-08T03:32:02.550Z,3.57
2017-12-08T03:34:30.154Z,2.87
2017-12-08T03:36:57.729Z,2.05
2017-12-08T03:39:25.293Z,2.30
2017-12-08T03:41:52.841Z,2.50
2017-12-08T03:44:20.401Z,2.17
2017-12-08T03:46:47.958Z,1.90
2017-12-08T03:49:15.551Z,2.60
2017-12-08T03:51:43.108Z,2.50
2017-12-08T03:54:10.658Z,2.13
2017-12-08T03:56:38.226Z,2.20
2017-12-08T03:59:05.774Z,2.57
2017-12-08T04:01:33.350Z,2.73
2017-12-08T04:04:00.918Z,2.30
2017-12-08T04:06:28.479Z,3.00
2017-12-08T04:08:56.532Z,2.37
2017-12-08T04:11:24.101Z,2.60
2017-12-08T04:13:51.643Z,2.70
2017-12-08T04:16:19.353Z,2.35
2017-12-08T04:18:47.697Z,2.47
2017-12-08T04:21:15.268Z,2.45
2017-12-08T04:23:42.835Z,2.80
2017-12-08T04:26:10.387Z,3.12
2017-12-08T04:28:37.970Z,2.78
2017-12-08T04:31:05.539Z,2.40
2017-12-08T04:33:33.870Z,3.00
2017-12-08T04:36:01.428Z,2.63
2017-12-08T04:38:28.992Z,3.10
2017-12-08T04:40:56.566Z,2.15
2017-12-08T04:43:24.125Z,2.80
2017-12-08T04:45:51.697Z,3.17
2017-12-08T04:48:19.282Z,3.60
2017-12-08T04:50:47.608Z,3.12
2017-12-08T04:53:15.177Z,3.55
2017-12-08T04:55:42.766Z,3.40
2017-12-08T04:58:10.337Z,3.47
2017-12-08T05:00:38.646Z,4.62
2017-12-08T05:03:06.998Z,3.90
2017-12-08T05:05:35.323Z,3.30
2017-12-08T05:08:02.881Z,3.47
2017-12-08T05:10:30.469Z,3.90
2017-12-08T05:12:58.101Z,4.72
2017-12-08T05:15:25.691Z,5.03
2017-12-08T05:17:53.298Z,4.40
2017-12-08T05:20:20.900Z,4.12
2017-12-08T05:22:48.485Z,3.67
2017-12-08T05:25:16.056Z,4.32
2017-12-08T05:27:44.449Z,3.75
2017-12-08T05:30:12.724Z,4.20
2017-12-08T05:32:40.324Z,3.40
2017-12-08T05:35:07.933Z,3.37
2017-12-08T05:37:35.565Z,3.05
2017-12-08T05:40:03.174Z,3.87
2017-12-08T05:42:30.766Z,4.20
2017-12-08T05:44:58.343Z,3.70
2017-12-08T05:47:25.904Z,4.90
2017-12-08T05:49:53.540Z,3.83
2017-12-08T05:52:21.879Z,4.85
2017-12-08T05:54:50.234Z,3.90
2017-12-08T05:57:17.807Z,3.70
2017-12-08T05:59:46.157Z,9.77
2017-12-08T06:02:13.732Z,4.10
2017-12-08T06:04:41.353Z,10.70
2017-12-08T06:07:08.941Z,7.47
2017-12-08T06:09:36.515Z,7.37
2017-12-08T06:12:04.102Z,6.50
2017-12-08T06:14:32.444Z,10.98
2017-12-08T06:17:00.041Z,9.20
2017-12-08T06:19:28.386Z,8.45
2017-12-08T06:21:55.954Z,6.80
2017-12-08T06:24:23.537Z,7.65
2017-12-08T06:26:51.849Z,6.40
2017-12-08T06:29:19.450Z,6.85
2017-12-08T06:31:47.010Z,7.05
2017-12-08T06:34:14.555Z,5.05
2017-12-08T06:36:42.140Z,5.30
2017-12-08T06:39:09.724Z,7.07
2017-12-08T06:41:38.063Z,12.70
2017-12-08T06:44:05.647Z,5.75
2017-12-08T06:46:33.991Z,4.75
2017-12-08T06:49:01.570Z,8.25
2017-12-08T06:51:29.309Z,4.50
2017-12-08T06:53:57.699Z,5.45
2017-12-08T06:56:25.278Z,4.95
2017-12-08T06:58:52.895Z,4.97
2017-12-08T07:01:20.460Z,4.80
2017-12-08T07:03:48.021Z,5.28
2017-12-08T07:06:15.938Z,4.12
2017-12-08T07:08:43.499Z,5.82
2017-12-08T07:11:11.047Z,11.00
2017-12-08T07:13:38.631Z,9.43
2017-12-08T07:16:06.211Z,4.85
2017-12-08T07:18:34.540Z,4.62
2017-12-08T07:21:02.087Z,4.20
2017-12-08T07:23:29.718Z,5.43
2017-12-08T07:25:57.250Z,4.85
2017-12-08T07:28:24.852Z,5.15
2017-12-08T07:30:52.422Z,5.40
2017-12-08T07:33:19.986Z,4.72
2017-12-08T07:35:47.557Z,4.90
2017-12-08T07:38:15.116Z,5.15
2017-12-08T07:40:42.697Z,6.05
2017-12-08T07:43:10.276Z,6.22
2017-12-08T07:45:37.869Z,10.95
2017-12-08T07:48:05.433Z,9.45
2017-12-08T07:50:32.994Z,6.75
2017-12-08T07:53:00.557Z,6.68
2017-12-08T07:55:28.124Z,8.05
2017-12-08T07:57:55.699Z,5.05
2017-12-08T08:00:23.273Z,5.97
2017-12-08T08:02:50.840Z,4.47
2017-12-08T08:05:18.401Z,4.20
2017-12-08T08:07:45.965Z,3.70
2017-12-08T08:10:13.526Z,5.03
2017-12-08T08:12:41.098Z,4.00
2017-12-08T08:15:08.682Z,3.72
2017-12-08T08:17:37.001Z,4.82
2017-12-08T08:20:04.587Z,3.75
2017-12-08T08:22:32.135Z,3.95
2017-12-08T08:24:59.702Z,3.95
2017-12-08T08:27:27.282Z,4.87
2017-12-08T08:29:55.710Z,5.60
2017-12-08T08:32:23.313Z,4.32
2017-12-08T08:34:50.855Z,7.57
2017-12-08T08:37:18.438Z,4.72
2017-12-08T08:39:46.778Z,5.30
2017-12-08T08:42:14.373Z,3.78
2017-12-08T08:44:41.947Z,4.55
2017-12-08T08:47:10.310Z,3.42
2017-12-08T08:49:38.682Z,4.28
2017-12-08T08:52:06.234Z,3.90
2017-12-08T08:54:33.805Z,4.60
2017-12-08T08:57:01.351Z,4.80
2017-12-08T08:59:28.938Z,3.97
2017-12-08T09:01:57.295Z,4.85
2017-12-08T09:04:24.897Z,4.18
2017-12-08T09:06:52.439Z,4.07
2017-12-08T09:09:20.772Z,4.20
2017-12-08T09:11:48.345Z,4.25
2017-12-08T09:14:15.943Z,5.25
2017-12-08T09:16:44.303Z,4.25
2017-12-08T09:19:11.882Z,3.97
2017-12-08T09:21:40.218Z,4.18
2017-12-08T09:24:07.774Z,3.90
2017-12-08T09:26:35.342Z,3.30
2017-12-08T09:29:02.894Z,4.40
2017-12-08T09:31:30.479Z,3.60
2017-12-08T09:33:58.071Z,10.48
2017-12-08T09:36:25.643Z,32.55
2017-12-08T09:38:53.195Z,5.80
2017-12-08T09:41:20.789Z,4.55
2017-12-08T09:43:48.342Z,3.53
2017-12-08T09:46:15.905Z,3.83
2017-12-08T09:48:43.466Z,5.10
2017-12-08T09:51:11.050Z,4.80
2017-12-08T09:53:38.595Z,5.50
2017-12-08T09:56:06.170Z,4.93
2017-12-08T09:58:33.743Z,4.82
2017-12-08T10:01:01.307Z,4.22
2017-12-08T10:03:28.884Z,4.50
2017-12-08T10:05:57.234Z,4.40
2017-12-08T10:08:24.825Z,4.60
2017-12-08T10:10:53.148Z,6.93
2017-12-08T10:13:20.718Z,4.80
2017-12-08T10:15:48.282Z,4.15
2017-12-08T10:18:15.842Z,4.60
2017-12-08T10:20:43.469Z,4.30
2017-12-08T10:23:11.054Z,4.07
2017-12-08T10:25:38.634Z,3.85
2017-12-08T10:28:06.199Z,4.40
2017-12-08T10:30:33.789Z,3.77
2017-12-08T10:33:02.100Z,3.73
2017-12-08T10:35:29.659Z,4.00
2017-12-08T10:37:57.284Z,3.80
2017-12-08T10:40:24.843Z,3.53
2017-12-08T10:42:53.159Z,3.90
2017-12-08T10:45:20.708Z,3.50
2017-12-08T10:47:48.267Z,3.80
2017-12-08T10:50:17.151Z,4.00
2017-12-08T10:52:44.719Z,4.63
2017-12-08T10:55:12.298Z,4.00
2017-12-08T10:57:39.883Z,3.60
2017-12-08T11:00:07.453Z,4.47
2017-12-08T11:02:35.030Z,5.50
2017-12-08T11:05:03.355Z,5.80
2017-12-08T11:07:30.939Z,3.97
2017-12-08T11:09:58.566Z,4.17
2017-12-08T11:12:30.159Z,5.55
2017-12-08T11:14:57.752Z,6.05
2017-12-08T11:17:26.101Z,7.15
2017-12-08T11:19:53.665Z,5.43
2017-12-08T11:22:21.237Z,6.18
2017-12-08T11:24:48.838Z,7.50
2017-12-08T11:27:16.404Z,6.43
2017-12-08T11:29:43.950Z,6.47
2017-12-08T11:32:11.528Z,6.15
2017-12-08T11:34:39.072Z,8.30
2017-12-08T11:37:06.648Z,6.00
2017-12-08T11:39:34.223Z,6.27
2017-12-08T11:42:01.797Z,7.18
2017-12-08T11:44:29.413Z,2.03
2017-12-08T11:46:57.030Z,1.80
2017-12-08T11:49:29.279Z,1.17
2017-12-08T11:51:56.859Z,1.42
2017-12-08T11:54:24.457Z,1.00
2017-12-08T11:56:52.809Z,1.00
2017-12-08T11:59:20.357Z,1.83
2017-12-08T12:01:47.915Z,1.40
2017-12-08T12:04:15.474Z,1.30
2017-12-08T12:06:43.049Z,1.00
2017-12-08T12:09:10.604Z,1.45
2017-12-08T12:11:38.183Z,3.87
2017-12-08T12:14:06.543Z,1.75
2017-12-08T12:16:34.135Z,1.70
2017-12-08T12:19:02.458Z,1.50
2017-12-08T12:21:30.006Z,1.77
2017-12-08T12:23:57.693Z,1.30
2017-12-08T12:26:25.257Z,1.20
2017-12-08T12:28:52.873Z,0.90
2017-12-08T12:31:20.423Z,1.65
2017-12-08T12:33:48.751Z,1.48
2017-12-08T12:36:16.330Z,1.30
2017-12-08T12:38:43.895Z,1.40
2017-12-08T12:41:11.467Z,1.05
2017-12-08T12:43:39.817Z,0.93
2017-12-08T12:46:07.393Z,1.30
2017-12-08T12:48:34.950Z,1.20
2017-12-08T12:51:02.527Z,1.00
2017-12-08T12:53:30.075Z,1.20
2017-12-08T12:55:57.641Z,1.10
2017-12-08T12:58:25.234Z,0.85
2017-12-08T13:00:52.792Z,1.30
2017-12-08T13:03:20.357Z,1.37
2017-12-08T13:05:47.954Z,1.40
2017-12-08T13:08:15.513Z,1.30
2017-12-08T13:10:43.086Z,2.70
2017-12-08T13:13:10.664Z,4.90
2017-12-08T13:15:38.338Z,1.60
2017-12-08T13:18:06.677Z,1.67
2017-12-08T13:20:34.267Z,1.95
2017-12-08T13:23:01.855Z,1.25
2017-12-08T13:25:29.430Z,1.42
2017-12-08T13:27:56.966Z,1.60
2017-12-08T13:30:25.330Z,1.62
2017-12-08T13:32:52.872Z,1.62
2017-12-08T13:35:20.435Z,2.12
2017-12-08T13:37:48.010Z,1.58
2017-12-08T13:40:15.583Z,5.40
2017-12-08T13:42:43.915Z,4.35
2017-12-08T13:45:11.500Z,3.10
2017-12-08T13:47:39.067Z,2.90
2017-12-08T13:50:06.656Z,2.10
2017-12-08T13:52:34.232Z,1.73
2017-12-08T13:55:13.405Z,7.37
2017-12-08T13:57:40.966Z,3.42
2017-12-08T14:00:08.522Z,3.65
2017-12-08T14:02:36.108Z,2.87
2017-12-08T14:05:04.508Z,2.55
2017-12-08T14:07:32.054Z,2.65
2017-12-08T14:10:00.398Z,2.05
2017-12-08T14:12:28.016Z,3.00
2017-12-08T14:14:55.592Z,1.90
2017-12-08T14:17:23.166Z,2.60
2017-12-08T14:19:50.754Z,3.10
2017-12-08T14:22:18.327Z,2.53
2017-12-08T14:24:45.972Z,1.70
2017-12-08T14:27:13.514Z,1.90
2017-12-08T14:29:41.204Z,2.20
2017-12-08T14:32:08.825Z,2.03
2017-12-08T14:34:36.474Z,1.80
2017-12-08T14:37:04.825Z,2.00
2017-12-08T14:39:32.735Z,2.70
2017-12-08T14:42:00.304Z,5.12
2017-12-08T14:44:27.897Z,16.05
2017-12-08T14:46:55.511Z,5.37
2017-12-08T14:49:23.837Z,4.32
2017-12-08T14:51:52.927Z,3.80
2017-12-08T14:54:20.517Z,2.72
2017-12-08T14:56:48.090Z,2.72
2017-12-08T14:59:16.428Z,5.45
2017-12-08T15:01:44.051Z,5.50
2017-12-08T15:04:12.352Z,4.25
2017-12-08T15:06:40.003Z,3.17
2017-12-08T15:09:07.586Z,4.10
2017-12-08T15:11:35.147Z,5.03
2017-12-08T15:14:02.722Z,4.50
2017-12-08T15:16:30.285Z,3.58
2017-12-08T15:18:57.864Z,5.03
2017-12-08T15:21:26.184Z,3.70
2017-12-08T15:23:53.755Z,2.92
2017-12-08T15:26:21.299Z,3.30
2017-12-08T15:28:48.865Z,2.72
2017-12-08T15:31:16.419Z,3.83
2017-12-08T15:33:43.978Z,2.58
2017-12-08T15:36:11.553Z,3.17
2017-12-08T15:38:39.145Z,2.97
2017-12-08T15:41:06.725Z,3.08
2017-12-08T15:43:34.297Z,4.18
2017-12-08T15:46:02.622Z,3.40
2017-12-08T15:48:30.191Z,4.35
2017-12-08T15:50:57.763Z,3.30
2017-12-08T15:53:25.362Z,4.60
2017-12-08T15:55:53.688Z,4.93
2017-12-08T15:58:21.240Z,4.35
2017-12-08T16:00:48.804Z,3.60
2017-12-08T16:03:16.465Z,3.15
2017-12-08T16:05:44.127Z,3.45
2017-12-08T16:08:11.884Z,3.40
2017-12-08T16:10:39.491Z,4.15
2017-12-08T16:13:07.073Z,3.67
2017-12-08T16:15:35.404Z,3.30
2017-12-08T16:18:02.982Z,2.87
2017-12-08T16:20:30.535Z,10.55
2017-12-08T16:22:58.109Z,4.93
2017-12-08T16:25:25.701Z,11.25
2017-12-08T16:27:53.266Z,10.10
2017-12-08T16:30:20.835Z,18.42
2017-12-08T16:32:48.799Z,4.47
2017-12-08T16:35:17.617Z,4.10
2017-12-08T16:37:45.224Z,6.00
2017-12-08T16:40:17.226Z,5.12
2017-12-08T16:42:47.859Z,11.25
2017-12-08T16:45:15.471Z,5.80
2017-12-08T16:47:43.810Z,9.63
2017-12-08T16:50:11.441Z,4.80
2017-12-08T16:52:39.016Z,7.20
2017-12-08T16:55:06.610Z,7.07
2017-12-08T16:57:34.175Z,8.15
2017-12-08T17:00:01.766Z,7.10
2017-12-08T17:02:30.104Z,8.75
2017-12-08T17:04:57.710Z,12.10
2017-12-08T17:07:26.034Z,7.35
2017-12-08T17:09:53.617Z,5.70
2017-12-08T17:12:21.701Z,8.40
2017-12-08T17:14:50.406Z,9.15
2017-12-08T17:17:19.521Z,7.70
2017-12-08T17:19:47.107Z,9.30
2017-12-08T17:22:14.674Z,11.20
2017-12-08T17:24:42.311Z,8.10
2017-12-08T17:27:09.886Z,8.80
2017-12-08T17:29:37.435Z,12.55
2017-12-08T17:32:05.014Z,12.35
2017-12-08T17:34:32.567Z,5.65
2017-12-08T17:37:00.148Z,11.45
2017-12-08T17:39:27.721Z,5.95
2017-12-08T17:41:55.319Z,8.85
2017-12-08T17:44:23.667Z,5.82
2017-12-08T17:46:51.228Z,7.43
2017-12-08T17:49:18.861Z,10.98
2017-12-08T17:51:46.464Z,8.98
2017-12-08T17:54:14.802Z,4.20
2017-12-08T17:56:42.401Z,4.10
2017-12-08T17:59:10.716Z,5.53
2017-12-08T18:01:38.310Z,4.65
2017-12-08T18:04:05.857Z,5.57
2017-12-08T18:06:33.413Z,4.78
2017-12-08T18:09:00.959Z,6.95
2017-12-08T18:11:28.534Z,6.15
2017-12-08T18:13:56.095Z,5.10
2017-12-08T18:16:23.713Z,5.78
2017-12-08T18:18:52.050Z,7.45
2017-12-08T18:21:19.637Z,7.65
2017-12-08T18:23:47.982Z,9.20
2017-12-08T18:26:15.530Z,9.00
2017-12-08T18:28:43.093Z,11.07
2017-12-08T18:31:10.686Z,8.52
2017-12-08T18:33:39.070Z,7.62
2017-12-08T18:36:07.456Z,7.00
2017-12-08T18:38:35.840Z,7.05
2017-12-08T18:41:04.179Z,7.45
2017-12-08T18:43:31.814Z,11.20
2017-12-08T18:45:59.397Z,38.72
2017-12-08T18:48:26.980Z,12.10
2017-12-08T18:50:54.573Z,10.63
2017-12-08T18:53:22.910Z,16.85
2017-12-08T18:55:50.500Z,8.43
2017-12-08T18:58:18.838Z,11.98
2017-12-08T19:00:46.448Z,9.38
2017-12-08T19:03:14.806Z,8.45
2017-12-08T19:05:43.199Z,11.30
2017-12-08T19:08:11.513Z,6.12
2017-12-08T19:10:39.085Z,8.10
2017-12-08T19:13:06.648Z,15.38
2017-12-08T19:15:34.218Z,9.60
2017-12-08T19:18:01.850Z,7.00
2017-12-08T19:20:29.422Z,6.72
2017-12-08T19:22:56.986Z,7.07
2017-12-08T19:25:24.554Z,7.65
2017-12-08T19:27:52.113Z,6.15
2017-12-08T19:30:20.109Z,7.90
2017-12-08T19:32:47.711Z,7.57
2017-12-08T19:35:15.328Z,8.15
2017-12-08T19:37:42.937Z,9.13
2017-12-08T19:40:10.497Z,7.68
2017-12-08T19:42:38.056Z,7.97
2017-12-08T19:45:05.624Z,8.05
2017-12-08T19:47:33.225Z,6.95
2017-12-08T19:50:00.826Z,6.57
2017-12-08T19:52:29.239Z,12.45
2017-12-08T19:54:56.960Z,11.35
2017-12-08T19:57:24.790Z,15.57
2017-12-08T19:59:53.237Z,14.43
2017-12-08T20:02:20.935Z,12.95
2017-12-08T20:04:48.679Z,31.83
2017-12-08T20:07:16.488Z,12.00
2017-12-08T20:09:45.014Z,9.70
2017-12-08T20:12:12.852Z,8.23
2017-12-08T20:14:40.743Z,7.25
2017-12-08T20:17:08.597Z,6.87
2017-12-08T20:19:36.393Z,7.00
2017-12-08T20:22:03.987Z,8.65
2017-12-08T20:24:32.689Z,10.05
2017-12-08T20:27:00.302Z,10.00
2017-12-08T20:29:27.947Z,7.35
2017-12-08T20:31:55.707Z,7.20
2017-12-08T20:34:23.498Z,6.62
2017-12-08T20:36:51.288Z,5.70
2017-12-08T20:39:19.934Z,5.80
2017-12-08T20:41:47.815Z,5.70
2017-12-08T20:44:16.412Z,5.70
2017-12-08T20:46:44.920Z,5.65
2017-12-08T20:49:13.620Z,5.37
2017-12-08T20:51:42.035Z,6.25
2017-12-08T20:54:09.715Z,7.97
2017-12-08T20:56:37.563Z,7.60
2017-12-08T20:59:05.340Z,6.68
2017-12-08T21:01:33.053Z,5.70
2017-12-08T21:04:01.541Z,6.60
2017-12-08T21:06:29.288Z,6.25
2017-12-08T21:08:57.823Z,6.40
2017-12-08T21:11:25.448Z,9.05
2017-12-08T21:13:53.791Z,7.10
2017-12-08T21:16:21.345Z,7.40
2017-12-08T21:18:48.936Z,7.25
2017-12-08T21:21:16.516Z,7.05
2017-12-08T21:23:44.887Z,6.97
2017-12-08T21:26:13.539Z,8.00
2017-12-08T21:28:41.234Z,6.40
2017-12-08T21:31:09.661Z,6.50
2017-12-08T21:33:37.362Z,6.50
2017-12-08T21:36:05.741Z,6.75
2017-12-08T21:38:34.231Z,5.85
2017-12-08T21:41:02.626Z,5.53
2017-12-08T21:43:30.406Z,4.78
2017-12-08T21:45:58.598Z,4.50
2017-12-08T21:48:26.626Z,4.18
2017-12-08T21:50:55.027Z,4.05
2017-12-08T21:53:23.349Z,4.15
2017-12-08T21:55:50.969Z,4.50
2017-12-08T21:58:20.168Z,3.85
2017-12-08T22:00:49.286Z,3.78
2017-12-08T22:03:17.345Z,3.22
2017-12-08T22:05:45.061Z,3.67
2017-12-08T22:08:13.480Z,4.93
2017-12-08T22:10:42.862Z,5.10
2017-12-08T22:13:11.064Z,6.03
2017-12-08T22:15:39.104Z,4.97
2017-12-08T22:18:08.187Z,5.55
2017-12-08T22:20:36.136Z,5.45
2017-12-08T22:23:04.238Z,5.00
2017-12-08T22:25:32.443Z,6.57
2017-12-08T22:28:01.225Z,5.70
2017-12-08T22:30:31.590Z,4.78
2017-12-08T22:32:59.541Z,5.15
2017-12-08T22:35:27.118Z,5.50
2017-12-08T22:37:55.009Z,4.85
2017-12-08T22:40:22.581Z,5.25
2017-12-08T22:42:50.154Z,5.15
2017-12-08T22:45:17.936Z,5.57
2017-12-08T22:47:46.301Z,5.20
2017-12-08T22:50:13.876Z,5.00
2017-12-08T22:52:42.433Z,4.50
2017-12-08T22:55:10.146Z,4.80
2017-12-08T22:57:37.694Z,4.05
2017-12-08T23:00:06.026Z,3.47
2017-12-08T23:02:33.672Z,3.87
2017-12-08T23:05:01.242Z,3.25
2017-12-08T23:07:28.806Z,4.05
2017-12-08T23:09:56.406Z,4.25
2017-12-08T23:12:24.764Z,3.62
2017-12-08T23:14:52.341Z,4.37
2017-12-08T23:17:20.647Z,4.47
2017-12-08T23:19:48.194Z,4.10
2017-12-08T23:22:15.789Z,4.50
2017-12-08T23:24:43.343Z,5.18
2017-12-08T23:27:10.913Z,4.90
2017-12-08T23:29:38.461Z,6.53
2017-12-08T23:32:06.016Z,4.95
2017-12-08T23:34:33.582Z,5.37
2017-12-08T23:37:01.177Z,5.25
2017-12-08T23:39:31.425Z,6.15
2017-12-08T23:41:59.810Z,6.72
2017-12-08T23:44:28.156Z,6.18
2017-12-08T23:46:55.731Z,9.52
2017-12-08T23:49:23.279Z,7.10
2017-12-08T23:51:50.861Z,8.20
2017-12-08T23:54:19.237Z,8.25
2017-12-08T23:56:47.593Z,8.13
2017-12-08T23:59:15.190Z,6.90
